createdAt,value
2022-11-26T00:01:15.996Z,7.20
2022-11-26T00:03:43.679Z,7.10
2022-11-26T00:06:16.366Z,7.10
2022-11-26T00:08:44.346Z,7.10
2022-11-26T00:11:15.494Z,7.10
2022-11-26T00:13:42.746Z,7.10
2022-11-26T00:16:13.262Z,7.00
2022-11-26T00:18:43.910Z,7.00
2022-11-26T00:21:19.909Z,6.90
2022-11-26T00:23:46.700Z,6.80
2022-11-26T00:26:19.038Z,6.80
2022-11-26T00:28:57.466Z,6.80
2022-11-26T00:31:24.825Z,6.80
2022-11-26T00:33:51.898Z,6.80
2022-11-26T00:36:21.679Z,6.90
2022-11-26T00:38:55.011Z,6.90
2022-11-26T00:41:26.383Z,6.90
2022-11-26T00:43:53.342Z,7.00
2022-11-26T00:46:21.656Z,7.00
2022-11-26T00:48:48.811Z,7.00
2022-11-26T00:51:21.727Z,7.00
2022-11-26T00:53:50.690Z,6.90
2022-11-26T00:56:21.997Z,6.90
2022-11-26T00:58:50.252Z,7.00
2022-11-26T01:01:21.294Z,7.00
2022-11-26T01:03:48.822Z,6.90
2022-11-26T01:06:22.594Z,6.90
2022-11-26T01:08:49.669Z,6.90
2022-11-26T01:11:20.314Z,6.90
2022-11-26T01:13:48.907Z,6.90
2022-11-26T01:16:28.780Z,6.90
2022-11-26T01:18:58.447Z,6.80
2022-11-26T01:21:27.640Z,6.80
2022-11-26T01:23:54.604Z,6.80
2022-11-26T01:26:24.518Z,6.80
2022-11-26T01:28:51.604Z,6.80
2022-11-26T01:31:23.975Z,6.80
2022-11-26T01:33:51.279Z,6.80
2022-11-26T01:36:35.170Z,6.70
2022-11-26T01:39:06.883Z,6.70
2022-11-26T01:41:53.913Z,6.60
2022-11-26T01:44:30.662Z,6.60
2022-11-26T01:46:58.735Z,6.60
2022-11-26T01:49:34.786Z,6.60
2022-11-26T01:52:18.534Z,6.60
2022-11-26T01:54:45.998Z,6.50
2022-11-26T01:57:16.538Z,6.50
2022-11-26T01:59:49.866Z,6.50
2022-11-26T02:02:17.987Z,6.50
2022-11-26T02:04:57.869Z,6.60
2022-11-26T02:07:24.694Z,6.60
2022-11-26T02:09:53.030Z,6.60
2022-11-26T02:12:21.131Z,6.60
2022-11-26T02:14:48.456Z,6.60
2022-11-26T02:17:27.729Z,6.60
2022-11-26T02:20:03.291Z,6.60
2022-11-26T02:22:49.609Z,6.60
2022-11-26T02:25:37.500Z,6.60
2022-11-26T02:28:33.114Z,6.60
2022-11-26T02:31:23.226Z,6.60
2022-11-26T02:34:01.639Z,6.50
2022-11-26T02:36:34.798Z,6.50
2022-11-26T02:39:12.935Z,6.50
2022-11-26T02:41:58.601Z,6.40
2022-11-26T02:44:44.142Z,6.40
2022-11-26T02:47:15.506Z,6.40
2022-11-26T02:49:44.428Z,6.40
2022-11-26T02:52:13.906Z,6.40
2022-11-26T02:54:41.776Z,6.40
2022-11-26T02:57:14.366Z,6.40
2022-11-26T02:59:42.231Z,6.40
2022-11-26T03:02:15.977Z,6.40
2022-11-26T03:04:52.614Z,6.40
2022-11-26T03:07:20.458Z,6.40
2022-11-26T03:09:51.936Z,6.40
2022-11-26T03:12:19.211Z,6.40
2022-11-26T03:14:46.758Z,6.40
2022-11-26T03:17:13.921Z,6.40
2022-11-26T03:19:42.192Z,6.30
2022-11-26T03:22:09.365Z,6.30
2022-11-26T03:24:37.255Z,6.30
2022-11-26T03:27:04.367Z,6.30
2022-11-26T03:29:31.491Z,6.30
2022-11-26T03:31:58.964Z,6.30
2022-11-26T03:34:26.229Z,6.20
2022-11-26T03:36:53.219Z,6.30
2022-11-26T03:39:20.222Z,6.30
2022-11-26T03:41:47.440Z,6.30
2022-11-26T03:44:14.739Z,6.20
2022-11-26T03:46:41.799Z,6.20
2022-11-26T03:49:08.926Z,6.10
2022-11-26T03:51:35.854Z,6.20
2022-11-26T03:54:02.487Z,6.20
2022-11-26T03:56:29.303Z,6.20
2022-11-26T03:58:56.198Z,6.20
2022-11-26T04:01:23.274Z,6.20
2022-11-26T04:03:50.302Z,6.10
2022-11-26T04:06:17.348Z,6.10
2022-11-26T04:08:44.429Z,6.10
2022-11-26T04:11:12.309Z,6.10
2022-11-26T04:13:39.313Z,6.10
2022-11-26T04:16:07.013Z,6.10
2022-11-26T04:18:33.840Z,6.10
2022-11-26T04:21:00.880Z,6.10
2022-11-26T04:23:28.035Z,6.10
2022-11-26T04:25:54.960Z,6.10
2022-11-26T04:28:21.993Z,6.10
2022-11-26T04:30:48.607Z,6.10
2022-11-26T04:33:15.348Z,6.10
2022-11-26T04:35:42.508Z,6.10
2022-11-26T04:38:09.571Z,6.10
2022-11-26T04:40:36.954Z,6.10
2022-11-26T04:43:03.919Z,6.10
2022-11-26T04:45:30.946Z,6.10
2022-11-26T04:47:58.000Z,6.10
2022-11-26T04:50:25.116Z,6.10
2022-11-26T04:52:52.413Z,6.10
2022-11-26T04:55:19.644Z,6.10
2022-11-26T04:57:48.484Z,6.20
2022-11-26T05:00:17.120Z,6.20
2022-11-26T05:02:44.464Z,6.20
2022-11-26T05:05:12.395Z,6.20
2022-11-26T05:07:39.374Z,6.20
2022-11-26T05:10:07.315Z,6.20
2022-11-26T05:12:34.528Z,6.20
2022-11-26T05:15:01.384Z,6.20
2022-11-26T05:17:28.460Z,6.20
2022-11-26T05:19:55.325Z,6.20
2022-11-26T05:22:22.144Z,6.20
2022-11-26T05:24:49.051Z,6.20
2022-11-26T05:27:16.073Z,6.20
2022-11-26T05:29:43.111Z,6.10
2022-11-26T05:32:09.863Z,6.10
2022-11-26T05:34:37.147Z,6.20
2022-11-26T05:37:04.279Z,6.10
2022-11-26T05:39:31.369Z,6.10
2022-11-26T05:41:58.362Z,6.10
2022-11-26T05:44:24.991Z,6.10
2022-11-26T05:46:56.976Z,6.10
2022-11-26T05:49:24.031Z,6.10
2022-11-26T05:51:51.877Z,6.10
2022-11-26T05:54:18.950Z,6.10
2022-11-26T05:56:45.986Z,6.10
2022-11-26T05:59:13.032Z,6.10
2022-11-26T06:01:40.953Z,6.10
2022-11-26T06:04:08.036Z,6.10
2022-11-26T06:06:35.036Z,6.10
2022-11-26T06:09:02.068Z,6.10
2022-11-26T06:11:29.200Z,6.00
2022-11-26T06:13:56.129Z,6.00
2022-11-26T06:16:22.862Z,6.00
2022-11-26T06:18:49.868Z,6.10
2022-11-26T06:21:16.914Z,6.00
2022-11-26T06:23:52.933Z,6.10
2022-11-26T06:26:22.854Z,6.10
2022-11-26T06:28:49.884Z,6.00
2022-11-26T06:31:16.645Z,6.10
2022-11-26T06:33:43.634Z,6.10
2022-11-26T06:36:10.796Z,6.10
2022-11-26T06:38:37.754Z,6.10
2022-11-26T06:41:07.964Z,6.10
2022-11-26T06:43:35.663Z,6.10
2022-11-26T06:46:08.489Z,6.00
2022-11-26T06:48:36.667Z,6.10
2022-11-26T06:51:12.447Z,6.10
2022-11-26T06:53:39.412Z,6.00
2022-11-26T06:56:16.411Z,6.10
2022-11-26T06:58:46.562Z,6.10
2022-11-26T07:01:23.997Z,6.10
2022-11-26T07:03:51.452Z,6.10
2022-11-26T07:06:24.368Z,6.00
2022-11-26T07:08:53.186Z,6.00
2022-11-26T07:11:21.016Z,6.20
2022-11-26T07:13:47.794Z,6.20
2022-11-26T07:16:15.314Z,6.20
2022-11-26T07:18:42.516Z,6.20
2022-11-26T07:21:13.114Z,6.10
2022-11-26T07:23:40.604Z,6.20
2022-11-26T07:26:08.900Z,6.20
2022-11-26T07:28:36.471Z,6.20
2022-11-26T07:31:04.889Z,6.20
2022-11-26T07:33:32.259Z,6.30
2022-11-26T07:36:04.475Z,6.30
2022-11-26T07:38:32.187Z,6.30
2022-11-26T07:41:10.836Z,6.30
2022-11-26T07:43:39.185Z,6.30
2022-11-26T07:46:07.599Z,6.30
2022-11-26T07:48:35.423Z,6.30
2022-11-26T07:51:02.797Z,6.30
2022-11-26T07:53:33.482Z,6.30
2022-11-26T07:56:03.484Z,6.30
2022-11-26T07:58:30.305Z,6.30
2022-11-26T08:00:56.946Z,6.30
2022-11-26T08:03:23.936Z,6.30
2022-11-26T08:05:50.652Z,6.30
2022-11-26T08:08:17.717Z,6.30
2022-11-26T08:10:44.682Z,6.30
2022-11-26T08:13:11.339Z,6.40
2022-11-26T08:15:38.382Z,6.50
2022-11-26T08:18:05.502Z,6.60
2022-11-26T08:20:32.480Z,6.70
2022-11-26T08:22:59.495Z,6.70
2022-11-26T08:25:26.232Z,6.80
2022-11-26T08:27:53.223Z,6.90
2022-11-26T08:30:20.307Z,7.00
2022-11-26T08:32:47.283Z,7.10
2022-11-26T08:35:14.388Z,7.10
2022-11-26T08:37:42.616Z,7.10
2022-11-26T08:40:11.962Z,7.20
2022-11-26T08:42:40.863Z,7.30
2022-11-26T08:45:08.216Z,7.30
2022-11-26T08:47:34.937Z,7.40
2022-11-26T08:50:02.012Z,7.40
2022-11-26T08:52:29.035Z,7.50
2022-11-26T08:54:56.059Z,7.50
2022-11-26T08:57:22.797Z,7.70
2022-11-26T08:59:50.637Z,7.70
2022-11-26T09:02:19.085Z,7.80
2022-11-26T09:04:46.044Z,7.90
2022-11-26T09:07:13.128Z,7.90
2022-11-26T09:09:40.025Z,7.90
2022-11-26T09:12:07.358Z,8.00
2022-11-26T09:14:40.690Z,8.10
2022-11-26T09:17:09.851Z,8.10
2022-11-26T09:19:36.846Z,8.00
2022-11-26T09:22:03.860Z,8.00
2022-11-26T09:24:30.913Z,8.00
2022-11-26T09:27:00.535Z,8.10
2022-11-26T09:29:30.956Z,8.20
2022-11-26T09:34:44.480Z,8.10
2022-11-26T09:37:11.618Z,8.10
2022-11-26T09:39:38.570Z,8.10
2022-11-26T09:42:08.215Z,8.10
2022-11-26T09:45:05.456Z,8.20
2022-11-26T09:47:39.452Z,8.30
2022-11-26T09:50:12.623Z,8.30
2022-11-26T09:52:59.220Z,8.30
2022-11-26T09:55:35.345Z,8.30
2022-11-26T09:58:12.789Z,8.40
2022-11-26T10:00:50.878Z,8.60
2022-11-26T10:03:22.680Z,8.60
2022-11-26T10:06:20.351Z,8.70
2022-11-26T10:09:21.483Z,8.70
2022-11-26T10:12:25.439Z,8.80
2022-11-26T10:15:10.325Z,8.80
2022-11-26T10:17:40.039Z,9.00
2022-11-26T10:20:15.663Z,9.10
2022-11-26T10:23:21.565Z,9.20
2022-11-26T10:26:06.668Z,9.30
2022-11-26T10:28:35.376Z,9.40
2022-11-26T10:31:15.039Z,9.50
2022-11-26T10:33:54.286Z,9.70
2022-11-26T10:36:39.119Z,9.90
2022-11-26T10:39:07.317Z,10.40
2022-11-26T10:41:36.755Z,11.00
2022-11-26T10:44:28.468Z,11.40
2022-11-26T10:46:55.787Z,11.60
2022-11-26T10:49:25.651Z,11.60
2022-11-26T10:51:54.851Z,11.70
2022-11-26T10:54:37.514Z,11.80
2022-11-26T10:57:17.942Z,11.60
2022-11-26T10:59:44.554Z,11.50
2022-11-26T11:02:19.863Z,12.10
2022-11-26T11:04:51.641Z,12.40
2022-11-26T11:07:38.024Z,13.00
2022-11-26T11:10:13.424Z,14.00
2022-11-26T11:12:41.850Z,13.90
2022-11-26T11:15:21.121Z,13.50
2022-11-26T11:18:04.991Z,13.00
2022-11-26T11:20:40.082Z,12.50
2022-11-26T11:23:10.403Z,12.20
2022-11-26T11:25:46.400Z,12.20
2022-11-26T11:28:20.932Z,12.70
2022-11-26T11:30:59.589Z,12.80
2022-11-26T11:33:28.906Z,13.30
2022-11-26T11:36:05.437Z,13.80
2022-11-26T11:38:47.611Z,14.60
2022-11-26T11:41:32.313Z,15.10
2022-11-26T11:44:18.835Z,15.80
2022-11-26T11:47:08.157Z,16.00
2022-11-26T11:49:55.347Z,15.40
2022-11-26T11:52:38.654Z,15.40
2022-11-26T11:55:31.628Z,15.90
2022-11-26T11:58:23.357Z,15.50
2022-11-26T12:01:00.109Z,15.00
2022-11-26T12:03:49.745Z,14.70
2022-11-26T12:06:16.463Z,14.90
2022-11-26T12:09:01.486Z,15.60
2022-11-26T12:11:46.270Z,15.70
2022-11-26T12:14:34.667Z,16.10
2022-11-26T12:17:14.679Z,15.90
2022-11-26T12:19:49.351Z,15.70
2022-11-26T12:22:53.772Z,15.50
2022-11-26T12:25:23.306Z,15.50
2022-11-26T12:27:58.159Z,15.10
2022-11-26T12:30:35.387Z,15.10
2022-11-26T12:33:24.865Z,15.20
2022-11-26T12:35:59.483Z,15.80
2022-11-26T12:38:34.922Z,16.00
2022-11-26T12:41:20.286Z,16.20
2022-11-26T12:44:06.376Z,15.90
2022-11-26T12:46:51.646Z,15.60
2022-11-26T12:49:50.841Z,15.60
2022-11-26T12:52:42.891Z,15.80
2022-11-26T12:55:22.002Z,15.70
2022-11-26T12:57:51.008Z,15.60
2022-11-26T13:00:30.122Z,15.70
2022-11-26T13:02:59.889Z,15.80
2022-11-26T13:06:02.860Z,15.90
2022-11-26T13:08:51.442Z,15.70
2022-11-26T13:11:21.700Z,15.70
2022-11-26T13:13:52.409Z,15.30
2022-11-26T13:16:25.536Z,15.50
2022-11-26T13:19:19.159Z,15.60
2022-11-26T13:22:38.326Z,15.40
2022-11-26T13:25:20.076Z,15.50
2022-11-26T13:28:08.249Z,15.60
2022-11-26T13:31:15.011Z,15.50
2022-11-26T13:33:54.783Z,15.40
2022-11-26T13:36:21.668Z,15.10
2022-11-26T13:39:38.863Z,14.70
2022-11-26T13:42:34.619Z,14.20
2022-11-26T13:45:13.073Z,13.90
2022-11-26T13:47:51.156Z,14.00
2022-11-26T13:50:41.016Z,14.10
2022-11-26T13:53:32.004Z,14.10
2022-11-26T13:56:07.987Z,13.70
2022-11-26T13:58:43.804Z,13.50
2022-11-26T14:01:31.004Z,13.20
2022-11-26T14:03:58.556Z,13.10
2022-11-26T14:06:25.411Z,13.20
2022-11-26T14:08:53.347Z,13.10
2022-11-26T14:11:45.089Z,13.00
2022-11-26T14:14:26.877Z,12.80
2022-11-26T14:17:02.702Z,12.40
2022-11-26T14:19:42.250Z,12.30
2022-11-26T14:22:21.414Z,12.20
2022-11-26T14:24:51.009Z,12.00
2022-11-26T14:27:18.607Z,11.90
2022-11-26T14:29:47.682Z,11.90
2022-11-26T14:32:21.413Z,11.90
2022-11-26T14:34:56.873Z,11.70
2022-11-26T14:37:26.885Z,11.40
2022-11-26T14:40:02.906Z,11.10
2022-11-26T14:42:30.423Z,10.70
2022-11-26T14:45:19.894Z,10.50
2022-11-26T14:47:51.144Z,10.30
2022-11-26T14:50:23.374Z,10.10
2022-11-26T14:52:58.503Z,10.10
2022-11-26T14:55:30.074Z,10.00
2022-11-26T14:58:06.154Z,9.90
2022-11-26T15:00:36.049Z,9.90
2022-11-26T15:03:04.079Z,9.80
2022-11-26T15:05:33.136Z,9.70
2022-11-26T15:08:14.609Z,9.70
2022-11-26T15:10:52.625Z,9.70
2022-11-26T15:13:36.742Z,9.70
2022-11-26T15:16:21.596Z,9.60
2022-11-26T15:18:48.717Z,9.60
2022-11-26T15:21:18.940Z,9.40
2022-11-26T15:23:45.970Z,9.40
2022-11-26T15:26:18.111Z,9.40
2022-11-26T15:28:45.035Z,9.30
2022-11-26T15:31:12.254Z,9.20
2022-11-26T15:33:39.789Z,9.10
2022-11-26T15:36:10.397Z,9.10
2022-11-26T15:39:00.351Z,9.10
2022-11-26T15:41:27.297Z,8.90
2022-11-26T15:44:01.175Z,8.90
2022-11-26T15:46:32.532Z,8.90
2022-11-26T15:49:03.828Z,8.90
2022-11-26T15:51:38.544Z,8.70
2022-11-26T15:54:24.418Z,8.60
2022-11-26T15:56:55.055Z,8.60
2022-11-26T15:59:24.198Z,8.60
2022-11-26T16:01:51.276Z,8.50
2022-11-26T16:04:33.635Z,8.40
2022-11-26T16:07:17.571Z,8.40
2022-11-26T16:09:45.837Z,8.40
2022-11-26T16:12:34.112Z,8.30
2022-11-26T16:15:19.115Z,8.20
2022-11-26T16:17:47.702Z,8.10
2022-11-26T16:20:23.354Z,8.10
2022-11-26T16:22:59.629Z,8.00
2022-11-26T16:25:33.086Z,8.00
2022-11-26T16:28:12.490Z,8.10
2022-11-26T16:30:41.424Z,8.00
2022-11-26T16:33:08.500Z,7.90
2022-11-26T16:35:51.184Z,7.90
2022-11-26T16:38:26.388Z,7.80
2022-11-26T16:40:54.308Z,7.90
2022-11-26T16:43:21.976Z,7.90
2022-11-26T16:45:53.009Z,7.90
2022-11-26T16:48:24.774Z,7.80
2022-11-26T16:50:55.333Z,7.70
2022-11-26T16:53:22.863Z,7.60
2022-11-26T16:55:51.033Z,7.60
2022-11-26T16:58:36.779Z,7.50
2022-11-26T17:01:04.213Z,7.50
2022-11-26T17:03:33.137Z,7.60
2022-11-26T17:06:10.898Z,7.50
2022-11-26T17:08:37.793Z,7.50
2022-11-26T17:11:04.912Z,7.50
2022-11-26T17:13:31.956Z,7.40
2022-11-26T17:15:59.020Z,7.50
2022-11-26T17:18:26.361Z,7.40
2022-11-26T17:20:54.045Z,7.40
2022-11-26T17:23:20.936Z,7.40
2022-11-26T17:25:52.406Z,7.50
2022-11-26T17:28:21.188Z,7.40
2022-11-26T17:30:47.952Z,7.40
2022-11-26T17:33:14.942Z,7.40
2022-11-26T17:35:41.954Z,7.30
2022-11-26T17:38:26.769Z,7.30
2022-11-26T17:40:53.603Z,7.30
2022-11-26T17:43:20.634Z,7.30
2022-11-26T17:45:47.678Z,7.20
2022-11-26T17:48:14.780Z,7.30
2022-11-26T17:50:42.581Z,7.30
2022-11-26T17:53:09.729Z,7.50
2022-11-26T17:55:36.840Z,7.40
2022-11-26T17:58:03.792Z,7.40
2022-11-26T18:00:30.620Z,7.40
2022-11-26T18:02:57.892Z,7.40
2022-11-26T18:05:25.943Z,7.30
2022-11-26T18:07:52.961Z,7.30
2022-11-26T18:10:22.116Z,7.20
2022-11-26T18:12:51.813Z,7.30
2022-11-26T18:15:21.716Z,7.30
2022-11-26T18:17:50.870Z,7.30
2022-11-26T18:20:19.729Z,7.30
2022-11-26T18:22:49.617Z,7.30
2022-11-26T18:25:16.571Z,7.30
2022-11-26T18:27:46.558Z,7.30
2022-11-26T18:30:13.607Z,7.30
2022-11-26T18:32:40.593Z,7.30
2022-11-26T18:35:08.039Z,7.30
2022-11-26T18:37:38.584Z,7.30
2022-11-26T18:40:08.067Z,7.30
2022-11-26T18:42:37.482Z,7.20
2022-11-26T18:45:10.716Z,7.20
2022-11-26T18:47:38.217Z,7.20
2022-11-26T18:50:06.363Z,7.20
2022-11-26T18:52:33.322Z,7.30
2022-11-26T18:55:00.381Z,7.30
2022-11-26T18:57:27.780Z,7.20
2022-11-26T18:59:54.787Z,7.20
2022-11-26T19:02:21.903Z,7.30
2022-11-26T19:04:48.852Z,7.30
2022-11-26T19:07:15.773Z,7.50
2022-11-26T19:09:43.002Z,7.40
2022-11-26T19:12:12.675Z,7.40
2022-11-26T19:14:39.728Z,7.40
2022-11-26T19:17:06.622Z,7.40
2022-11-26T19:19:33.620Z,7.40
2022-11-26T19:22:01.876Z,7.40
2022-11-26T19:24:29.940Z,7.40
2022-11-26T19:26:57.437Z,7.50
2022-11-26T19:29:24.446Z,7.50
2022-11-26T19:31:51.545Z,7.50
2022-11-26T19:34:18.492Z,7.50
2022-11-26T19:36:48.662Z,7.50
2022-11-26T19:39:16.603Z,7.50
2022-11-26T19:41:44.040Z,7.50
2022-11-26T19:44:12.174Z,7.60
2022-11-26T19:46:40.950Z,7.70
2022-11-26T19:49:12.044Z,7.70
2022-11-26T19:51:38.789Z,7.70
2022-11-26T19:54:06.305Z,7.70
2022-11-26T19:56:33.661Z,7.80
2022-11-26T19:59:02.002Z,7.80
2022-11-26T20:01:33.981Z,7.80
2022-11-26T20:04:04.417Z,7.90
2022-11-26T20:06:32.626Z,8.00
2022-11-26T20:08:59.639Z,8.00
2022-11-26T20:11:28.585Z,8.00
2022-11-26T20:13:57.498Z,8.00
2022-11-26T20:16:27.268Z,8.10
2022-11-26T20:18:54.885Z,8.10
2022-11-26T20:21:25.476Z,8.10
2022-11-26T20:23:53.920Z,8.00
2022-11-26T20:26:26.486Z,8.00
2022-11-26T20:28:54.184Z,7.90
2022-11-26T20:31:23.977Z,7.90
2022-11-26T20:33:52.670Z,7.90
2022-11-26T20:36:22.552Z,7.90
2022-11-26T20:38:53.429Z,7.80
2022-11-26T20:41:20.691Z,7.80
2022-11-26T20:43:47.898Z,7.80
2022-11-26T20:46:15.366Z,7.80
2022-11-26T20:48:44.269Z,7.70
2022-11-26T20:51:14.028Z,7.80
2022-11-26T20:53:42.287Z,7.80
2022-11-26T20:56:09.533Z,7.80
2022-11-26T20:58:36.647Z,7.90
2022-11-26T21:01:03.685Z,7.90
2022-11-26T21:03:31.498Z,7.90
2022-11-26T21:06:02.682Z,8.00
2022-11-26T21:08:29.952Z,8.00
2022-11-26T21:10:56.851Z,8.00
2022-11-26T21:13:23.818Z,8.00
2022-11-26T21:15:50.587Z,8.00
2022-11-26T21:18:17.705Z,8.00
2022-11-26T21:20:44.839Z,8.00
2022-11-26T21:23:13.115Z,8.00
2022-11-26T21:25:42.228Z,8.00
2022-11-26T21:28:10.436Z,8.00
2022-11-26T21:30:38.192Z,8.00
2022-11-26T21:33:09.255Z,8.00
2022-11-26T21:35:37.601Z,8.00
2022-11-26T21:38:05.793Z,8.00
2022-11-26T21:40:33.483Z,8.10
2022-11-26T21:43:00.227Z,8.00
2022-11-26T21:45:27.771Z,8.00
2022-11-26T21:47:54.600Z,8.00
2022-11-26T21:50:21.533Z,8.00
2022-11-26T21:52:48.415Z,8.00
2022-11-26T21:55:15.136Z,7.90
2022-11-26T21:57:41.770Z,7.90
2022-11-26T22:00:09.188Z,7.90
2022-11-26T22:02:36.336Z,7.80
2022-11-26T22:05:03.470Z,7.80
2022-11-26T22:07:30.621Z,7.80
2022-11-26T22:09:57.498Z,7.80
2022-11-26T22:12:24.339Z,7.80
2022-11-26T22:14:51.183Z,7.80
2022-11-26T22:17:17.992Z,7.70
2022-11-26T22:19:44.715Z,7.70
2022-11-26T22:22:11.378Z,7.70
2022-11-26T22:24:38.406Z,7.60
2022-11-26T22:27:05.116Z,7.70
2022-11-26T22:29:32.135Z,7.70
2022-11-26T22:31:59.139Z,7.60
2022-11-26T22:34:27.845Z,7.60
2022-11-26T22:36:54.959Z,7.70
2022-11-26T22:39:21.597Z,7.70
2022-11-26T22:41:49.247Z,7.80
2022-11-26T22:44:16.695Z,7.80
2022-11-26T22:46:43.803Z,7.80
2022-11-26T22:49:13.506Z,7.70
2022-11-26T22:51:40.627Z,7.70
2022-11-26T22:54:09.527Z,7.70
2022-11-26T22:56:37.752Z,7.70
2022-11-26T22:59:06.501Z,7.70
2022-11-26T23:01:34.598Z,7.70
2022-11-26T23:04:04.454Z,7.60
2022-11-26T23:06:32.379Z,7.60
2022-11-26T23:09:00.538Z,7.60
2022-11-26T23:11:32.084Z,7.60
2022-11-26T23:13:59.103Z,7.60
2022-11-26T23:16:27.017Z,7.60
2022-11-26T23:18:56.141Z,7.60
2022-11-26T23:21:34.992Z,7.60
2022-11-26T23:24:01.991Z,7.60
2022-11-26T23:26:31.175Z,7.50
2022-11-26T23:29:00.110Z,7.60
2022-11-26T23:31:36.119Z,7.50
2022-11-26T23:34:03.779Z,7.60
2022-11-26T23:36:31.990Z,7.60
2022-11-26T23:39:04.105Z,7.50
2022-11-26T23:41:31.120Z,7.40
2022-11-26T23:43:58.183Z,7.50
2022-11-26T23:46:31.005Z,7.50
2022-11-26T23:48:58.189Z,7.50
2022-11-26T23:51:28.010Z,7.50
2022-11-26T23:53:54.935Z,7.50
2022-11-26T23:56:30.785Z,7.50
2022-11-26T23:59:01.481Z,7.50
